createdAt,value
2022-11-26T00:01:32.520Z,98870.63
2022-11-26T00:04:03.376Z,98871.97
2022-11-26T00:06:36.705Z,98874.81
2022-11-26T00:09:08.511Z,98879.13
2022-11-26T00:11:37.574Z,98881.53
2022-11-26T00:14:14.773Z,98883.84
2022-11-26T00:16:45.484Z,98890.47
2022-11-26T00:19:14.546Z,98888.38
2022-11-26T00:21:44.152Z,98895.47
2022-11-26T00:24:27.592Z,98886.78
2022-11-26T00:27:00.288Z,98890.75
2022-11-26T00:29:29.947Z,98892.78
2022-11-26T00:32:00.484Z,98894.66
2022-11-26T00:34:29.777Z,98899.13
2022-11-26T00:36:58.984Z,98897.34
2022-11-26T00:39:28.115Z,98903.00
2022-11-26T00:41:57.193Z,98911.28
2022-11-26T00:44:27.151Z,98906.34
2022-11-26T00:46:56.163Z,98918.22
2022-11-26T00:49:28.766Z,98927.03
2022-11-26T00:51:57.959Z,98925.66
2022-11-26T00:54:27.232Z,98921.38
2022-11-26T00:56:56.402Z,98935.47
2022-11-26T00:59:25.507Z,98939.91
2022-11-26T01:01:54.604Z,98940.81
2022-11-26T01:04:23.812Z,98938.44
2022-11-26T01:06:54.270Z,98948.34
2022-11-26T01:09:23.587Z,98947.22
2022-11-26T01:11:54.485Z,98954.84
2022-11-26T01:14:24.559Z,98956.47
2022-11-26T01:16:57.099Z,98950.56
2022-11-26T01:19:26.205Z,98955.13
2022-11-26T01:21:56.685Z,98948.59
2022-11-26T01:24:25.743Z,98950.25
2022-11-26T01:26:54.795Z,98953.03
2022-11-26T01:29:23.839Z,98952.19
2022-11-26T01:31:52.955Z,98952.72
2022-11-26T01:34:22.152Z,98959.88
2022-11-26T01:36:51.249Z,98943.25
2022-11-26T01:39:24.808Z,98953.09
2022-11-26T01:42:00.632Z,98958.91
2022-11-26T01:44:32.520Z,98960.88
2022-11-26T01:47:04.208Z,98960.53
2022-11-26T01:49:36.194Z,98962.28
2022-11-26T01:52:08.905Z,98952.25
2022-11-26T01:54:44.480Z,98959.34
2022-11-26T01:57:18.560Z,98966.38
2022-11-26T01:59:54.039Z,98966.38
2022-11-26T02:02:26.738Z,98969.81
2022-11-26T02:05:02.059Z,98980.50
2022-11-26T02:07:31.444Z,98966.34
2022-11-26T02:10:02.050Z,98976.59
2022-11-26T02:12:31.201Z,98969.81
2022-11-26T02:15:00.491Z,98978.47
2022-11-26T02:17:38.428Z,98972.81
2022-11-26T02:20:36.667Z,98976.59
2022-11-26T02:23:41.351Z,98977.25
2022-11-26T02:27:13.968Z,98982.22
2022-11-26T02:30:07.943Z,98979.34
2022-11-26T02:32:51.104Z,98982.00
2022-11-26T02:35:27.491Z,98984.00
2022-11-26T02:38:00.583Z,98997.66
2022-11-26T02:40:30.519Z,98999.19
2022-11-26T02:42:59.584Z,98996.63
2022-11-26T02:45:35.404Z,98993.38
2022-11-26T02:48:09.796Z,98992.78
2022-11-26T02:50:50.835Z,98996.69
2022-11-26T02:53:23.796Z,99002.97
2022-11-26T02:56:02.175Z,99004.81
2022-11-26T02:58:32.736Z,99010.56
2022-11-26T03:01:10.779Z,99013.53
2022-11-26T03:03:46.551Z,99019.13
2022-11-26T03:06:18.464Z,99020.38
2022-11-26T03:08:47.616Z,99024.56
2022-11-26T03:11:16.747Z,99033.38
2022-11-26T03:13:45.800Z,99034.19
2022-11-26T03:16:16.478Z,99029.13
2022-11-26T03:18:45.635Z,99023.78
2022-11-26T03:21:14.657Z,99028.03
2022-11-26T03:23:43.858Z,99030.19
2022-11-26T03:26:13.124Z,99028.69
2022-11-26T03:28:42.136Z,99017.63
2022-11-26T03:31:11.229Z,99019.25
2022-11-26T03:33:41.712Z,99023.97
2022-11-26T03:36:11.206Z,99029.38
2022-11-26T03:38:40.294Z,99027.75
2022-11-26T03:41:09.426Z,99027.75
2022-11-26T03:43:38.899Z,99034.09
2022-11-26T03:46:08.079Z,99038.28
2022-11-26T03:48:37.084Z,99038.28
2022-11-26T03:51:07.568Z,99055.00
2022-11-26T03:53:36.723Z,99060.28
2022-11-26T03:56:06.733Z,99059.31
2022-11-26T03:58:35.846Z,99058.03
2022-11-26T04:01:10.164Z,99066.38
2022-11-26T04:03:39.421Z,99071.91
2022-11-26T04:06:10.150Z,99080.16
2022-11-26T04:08:39.229Z,99081.34
2022-11-26T04:11:08.387Z,99082.34
2022-11-26T04:13:37.603Z,99090.22
2022-11-26T04:16:07.726Z,99084.69
2022-11-26T04:18:37.012Z,99096.06
2022-11-26T04:21:09.328Z,99092.41
2022-11-26T04:23:38.496Z,99084.28
2022-11-26T04:26:07.699Z,99088.91
2022-11-26T04:28:36.721Z,99079.16
2022-11-26T04:31:06.029Z,99095.97
2022-11-26T04:33:35.123Z,99095.97
2022-11-26T04:36:04.352Z,99099.97
2022-11-26T04:38:34.915Z,99108.28
2022-11-26T04:41:04.027Z,99118.06
2022-11-26T04:43:33.139Z,99117.41
2022-11-26T04:46:02.754Z,99113.97
2022-11-26T04:48:31.867Z,99120.19
2022-11-26T04:51:00.943Z,99118.56
2022-11-26T04:53:29.973Z,99120.84
2022-11-26T04:56:00.474Z,99129.63
2022-11-26T04:58:29.577Z,99133.19
2022-11-26T05:00:58.732Z,99134.31
2022-11-26T05:03:27.888Z,99143.50
2022-11-26T05:05:56.964Z,99142.31
2022-11-26T05:08:26.048Z,99150.94
2022-11-26T05:10:55.599Z,99148.47
2022-11-26T05:13:26.266Z,99163.16
2022-11-26T05:15:55.669Z,99171.34
2022-11-26T05:18:25.187Z,99169.81
2022-11-26T05:20:54.239Z,99177.31
2022-11-26T05:23:23.316Z,99180.56
2022-11-26T05:25:52.729Z,99184.38
2022-11-26T05:28:21.754Z,99189.16
2022-11-26T05:30:58.283Z,99190.88
2022-11-26T05:33:27.975Z,99195.19
2022-11-26T05:35:57.307Z,99201.00
2022-11-26T05:38:26.376Z,99206.59
2022-11-26T05:40:55.585Z,99205.13
2022-11-26T05:43:25.024Z,99213.41
2022-11-26T05:45:55.629Z,99212.69
2022-11-26T05:48:24.672Z,99202.94
2022-11-26T05:50:58.983Z,99216.81
2022-11-26T05:53:28.164Z,99207.59
2022-11-26T05:55:57.393Z,99201.06
2022-11-26T05:58:26.617Z,99207.94
2022-11-26T06:00:57.276Z,99214.59
2022-11-26T06:03:26.453Z,99216.78
2022-11-26T06:05:55.636Z,99220.88
2022-11-26T06:08:24.680Z,99218.28
2022-11-26T06:10:53.814Z,99232.16
2022-11-26T06:13:23.288Z,99226.09
2022-11-26T06:15:52.672Z,99233.94
2022-11-26T06:18:23.104Z,99230.84
2022-11-26T06:20:52.273Z,99230.44
2022-11-26T06:23:21.416Z,99233.22
2022-11-26T06:25:50.599Z,99237.78
2022-11-26T06:28:19.963Z,99236.72
2022-11-26T06:30:49.117Z,99232.53
2022-11-26T06:33:18.351Z,99235.00
2022-11-26T06:35:48.892Z,99238.00
2022-11-26T06:38:18.176Z,99246.97
2022-11-26T06:40:47.415Z,99253.94
2022-11-26T06:43:16.509Z,99261.53
2022-11-26T06:45:45.677Z,99263.13
2022-11-26T06:48:14.785Z,99267.78
2022-11-26T06:50:43.927Z,99266.84
2022-11-26T06:53:14.400Z,99272.66
2022-11-26T06:55:43.665Z,99279.66
2022-11-26T06:58:14.840Z,99274.38
2022-11-26T07:00:43.901Z,99278.38
2022-11-26T07:03:13.013Z,99277.41
2022-11-26T07:05:42.052Z,99292.03
2022-11-26T07:08:11.244Z,99295.44
2022-11-26T07:10:46.076Z,99297.47
2022-11-26T07:13:17.806Z,99302.81
2022-11-26T07:15:47.204Z,99302.13
2022-11-26T07:18:16.362Z,99305.78
2022-11-26T07:20:45.512Z,99304.78
2022-11-26T07:23:14.668Z,99306.06
2022-11-26T07:25:45.208Z,99314.63
2022-11-26T07:28:14.290Z,99315.59
2022-11-26T07:30:43.303Z,99318.38
2022-11-26T07:33:12.379Z,99325.19
2022-11-26T07:35:43.744Z,99323.16
2022-11-26T07:38:12.989Z,99320.84
2022-11-26T07:40:42.015Z,99320.41
2022-11-26T07:43:12.582Z,99333.81
2022-11-26T07:45:41.770Z,99337.22
2022-11-26T07:48:16.703Z,99332.72
2022-11-26T07:50:47.113Z,99331.38
2022-11-26T07:53:16.233Z,99343.41
2022-11-26T07:55:45.247Z,99340.41
2022-11-26T07:58:16.564Z,99346.22
2022-11-26T08:00:45.595Z,99347.03
2022-11-26T08:03:14.691Z,99351.84
2022-11-26T08:05:44.186Z,99350.00
2022-11-26T08:08:14.287Z,99354.19
2022-11-26T08:10:43.460Z,99364.38
2022-11-26T08:13:12.703Z,99364.50
2022-11-26T08:15:43.212Z,99354.53
2022-11-26T08:18:12.213Z,99360.69
2022-11-26T08:20:41.297Z,99363.22
2022-11-26T08:23:10.322Z,99355.56
2022-11-26T08:25:53.465Z,99368.22
2022-11-26T08:28:28.774Z,99378.53
2022-11-26T08:31:04.800Z,99366.69
2022-11-26T08:33:34.911Z,99370.06
2022-11-26T08:36:07.611Z,99373.19
2022-11-26T08:38:39.927Z,99365.97
2022-11-26T08:41:12.387Z,99379.19
2022-11-26T08:46:32.915Z,99380.63
2022-11-26T08:49:02.135Z,99383.06
2022-11-26T08:51:31.289Z,99382.66
2022-11-26T08:54:00.417Z,99391.50
2022-11-26T08:56:29.592Z,99378.22
2022-11-26T08:58:58.986Z,99383.47
2022-11-26T09:01:30.348Z,99385.22
2022-11-26T09:04:04.059Z,99384.72
2022-11-26T09:06:36.783Z,99393.69
2022-11-26T09:09:14.031Z,99393.72
2022-11-26T09:11:48.333Z,99390.44
2022-11-26T09:14:20.343Z,99389.94
2022-11-26T09:16:49.584Z,99401.94
2022-11-26T09:19:20.544Z,99399.06
2022-11-26T09:21:50.090Z,99392.06
2022-11-26T09:24:19.451Z,99400.22
2022-11-26T09:26:49.812Z,99392.50
2022-11-26T09:29:22.207Z,99400.72
2022-11-26T09:34:42.502Z,99398.06
2022-11-26T09:37:11.736Z,99402.94
2022-11-26T09:39:40.791Z,99398.56
2022-11-26T09:42:20.395Z,99401.38
2022-11-26T09:45:05.541Z,99405.72
2022-11-26T09:47:40.690Z,99400.06
2022-11-26T09:50:26.891Z,99398.38
2022-11-26T09:53:01.474Z,99398.56
2022-11-26T09:55:34.720Z,99392.78
2022-11-26T09:58:13.414Z,99388.00
2022-11-26T10:00:45.456Z,99383.19
2022-11-26T10:03:17.502Z,99391.75
2022-11-26T10:05:57.781Z,99388.03
2022-11-26T10:09:12.852Z,99377.88
2022-11-26T10:11:53.699Z,99378.09
2022-11-26T10:14:50.049Z,99383.13
2022-11-26T10:17:30.801Z,99378.91
2022-11-26T10:20:55.553Z,99373.38
2022-11-26T10:23:32.752Z,99373.56
2022-11-26T10:26:08.804Z,99372.84
2022-11-26T10:28:45.758Z,99372.88
2022-11-26T10:31:22.598Z,99372.91
2022-11-26T10:33:58.197Z,99375.44
2022-11-26T10:36:37.716Z,99380.25
2022-11-26T10:39:08.404Z,99371.88
2022-11-26T10:41:39.040Z,99373.19
2022-11-26T10:44:37.058Z,99372.38
2022-11-26T10:47:28.756Z,99374.00
2022-11-26T10:50:46.201Z,99370.84
2022-11-26T10:53:08.062Z,99375.66
2022-11-26T10:55:40.680Z,99364.41
2022-11-26T10:58:18.247Z,99374.06
2022-11-26T11:00:58.369Z,99368.81
2022-11-26T11:04:06.067Z,99363.16
2022-11-26T11:06:41.725Z,99371.19
2022-11-26T11:09:35.062Z,99370.38
2022-11-26T11:12:26.615Z,99365.91
2022-11-26T11:14:55.703Z,99372.31
2022-11-26T11:17:37.848Z,99371.88
2022-11-26T11:20:33.097Z,99382.25
2022-11-26T11:23:07.097Z,99390.50
2022-11-26T11:25:41.344Z,99386.97
2022-11-26T11:28:19.639Z,99379.94
2022-11-26T11:30:58.628Z,99386.63
2022-11-26T11:33:29.967Z,99372.88
2022-11-26T11:36:18.052Z,99383.31
2022-11-26T11:38:48.904Z,99382.81
2022-11-26T11:41:29.419Z,99383.16
2022-11-26T11:44:07.485Z,99390.47
2022-11-26T11:46:57.552Z,99388.97
2022-11-26T11:49:43.376Z,99385.44
2022-11-26T11:52:25.694Z,99392.41
2022-11-26T11:55:04.378Z,99385.94
2022-11-26T11:58:05.430Z,99386.78
2022-11-26T12:00:45.165Z,99383.53
2022-11-26T12:03:47.667Z,99377.94
2022-11-26T12:06:29.968Z,99379.66
2022-11-26T12:09:12.118Z,99386.00
2022-11-26T12:11:55.625Z,99383.44
2022-11-26T12:14:31.178Z,99392.84
2022-11-26T12:17:06.842Z,99382.41
2022-11-26T12:19:42.497Z,99389.47
2022-11-26T12:22:18.864Z,99390.56
2022-11-26T12:24:52.940Z,99382.56
2022-11-26T12:27:33.259Z,99379.50
2022-11-26T12:30:08.739Z,99384.50
2022-11-26T12:32:44.476Z,99383.81
2022-11-26T12:35:20.828Z,99385.09
2022-11-26T12:38:03.273Z,99387.56
2022-11-26T12:40:39.374Z,99387.56
2022-11-26T12:43:18.296Z,99387.09
2022-11-26T12:45:56.418Z,99380.53
2022-11-26T12:48:42.783Z,99372.72
2022-11-26T12:51:25.534Z,99374.22
2022-11-26T12:54:11.070Z,99377.81
2022-11-26T12:56:50.949Z,99375.63
2022-11-26T12:59:27.868Z,99370.16
2022-11-26T13:01:59.745Z,99371.03
2022-11-26T13:04:37.658Z,99379.13
2022-11-26T13:07:21.820Z,99379.03
2022-11-26T13:10:14.288Z,99374.72
2022-11-26T13:12:53.193Z,99377.50
2022-11-26T13:15:29.363Z,99375.09
2022-11-26T13:18:01.842Z,99377.28
2022-11-26T13:20:49.551Z,99382.44
2022-11-26T13:23:50.824Z,99378.84
2022-11-26T13:26:37.555Z,99377.44
2022-11-26T13:29:50.595Z,99374.06
2022-11-26T13:32:55.907Z,99378.97
2022-11-26T13:35:49.432Z,99375.38
2022-11-26T13:38:25.989Z,99384.31
2022-11-26T13:41:22.643Z,99384.59
2022-11-26T13:44:33.498Z,99381.97
2022-11-26T13:47:07.671Z,99377.81
2022-11-26T13:49:42.681Z,99380.16
2022-11-26T13:52:21.403Z,99385.81
2022-11-26T13:54:56.819Z,99394.75
2022-11-26T13:57:32.731Z,99402.69
2022-11-26T14:00:02.028Z,99401.13
2022-11-26T14:02:47.414Z,99405.50
2022-11-26T14:05:18.529Z,99412.69
2022-11-26T14:07:49.135Z,99400.44
2022-11-26T14:10:43.692Z,99409.25
2022-11-26T14:13:16.052Z,99416.00
2022-11-26T14:16:00.987Z,99414.97
2022-11-26T14:19:03.320Z,99410.56
2022-11-26T14:21:32.458Z,99416.91
2022-11-26T14:24:03.380Z,99411.38
2022-11-26T14:26:37.470Z,99406.28
2022-11-26T14:29:19.184Z,99402.63
2022-11-26T14:31:53.213Z,99399.63
2022-11-26T14:34:30.311Z,99398.47
2022-11-26T14:37:01.702Z,99400.84
2022-11-26T14:39:32.861Z,99393.63
2022-11-26T14:42:05.918Z,99398.19
2022-11-26T14:44:35.563Z,99404.13
2022-11-26T14:47:15.680Z,99404.66
2022-11-26T14:49:50.424Z,99400.44
2022-11-26T14:52:24.915Z,99400.66
2022-11-26T14:55:00.051Z,99408.25
2022-11-26T14:57:40.157Z,99411.44
2022-11-26T15:00:24.184Z,99409.19
2022-11-26T15:02:54.124Z,99406.66
2022-11-26T15:05:26.016Z,99407.28
2022-11-26T15:08:00.866Z,99410.88
2022-11-26T15:10:34.954Z,99413.69
2022-11-26T15:13:12.116Z,99411.44
2022-11-26T15:15:53.422Z,99415.03
2022-11-26T15:18:29.929Z,99415.84
2022-11-26T15:21:02.202Z,99430.03
2022-11-26T15:23:33.892Z,99426.81
2022-11-26T15:26:05.291Z,99429.97
2022-11-26T15:28:41.069Z,99437.38
2022-11-26T15:31:10.572Z,99439.59
2022-11-26T15:33:41.063Z,99443.56
2022-11-26T15:36:17.177Z,99446.44
2022-11-26T15:39:04.133Z,99449.47
2022-11-26T15:41:42.389Z,99454.97
2022-11-26T15:44:23.475Z,99446.88
2022-11-26T15:46:55.623Z,99455.19
2022-11-26T15:49:32.389Z,99457.28
2022-11-26T15:52:05.404Z,99459.44
2022-11-26T15:55:04.724Z,99463.25
2022-11-26T15:57:32.840Z,99467.94
2022-11-26T16:00:07.307Z,99470.56
2022-11-26T16:02:39.761Z,99471.47
2022-11-26T16:05:25.471Z,99468.41
2022-11-26T16:07:59.926Z,99473.47
2022-11-26T16:10:35.396Z,99471.19
2022-11-26T16:13:20.965Z,99464.06
2022-11-26T16:16:01.383Z,99469.03
2022-11-26T16:18:38.536Z,99471.56
2022-11-26T16:21:17.020Z,99472.63
2022-11-26T16:23:55.513Z,99479.13
2022-11-26T16:26:24.989Z,99468.75
2022-11-26T16:28:55.786Z,99479.66
2022-11-26T16:31:25.145Z,99470.63
2022-11-26T16:33:54.366Z,99483.28
2022-11-26T16:36:27.965Z,99479.38
2022-11-26T16:38:57.132Z,99482.94
2022-11-26T16:41:26.281Z,99477.88
2022-11-26T16:43:58.618Z,99477.91
2022-11-26T16:46:28.778Z,99487.47
2022-11-26T16:48:58.136Z,99483.78
2022-11-26T16:51:27.276Z,99490.06
2022-11-26T16:53:56.460Z,99492.13
2022-11-26T16:56:29.594Z,99490.94
2022-11-26T16:59:02.648Z,99486.69
2022-11-26T17:01:31.818Z,99491.84
2022-11-26T17:04:00.895Z,99490.06
2022-11-26T17:06:34.753Z,99492.75
2022-11-26T17:09:04.022Z,99492.44
2022-11-26T17:11:33.320Z,99502.88
2022-11-26T17:14:03.868Z,99489.63
2022-11-26T17:16:33.004Z,99486.03
2022-11-26T17:19:02.280Z,99482.41
2022-11-26T17:21:31.652Z,99497.25
2022-11-26T17:24:00.780Z,99490.75
2022-11-26T17:26:29.941Z,99493.06
2022-11-26T17:28:59.112Z,99487.75
2022-11-26T17:31:30.099Z,99484.63
2022-11-26T17:33:59.437Z,99485.53
2022-11-26T17:36:33.828Z,99486.66
2022-11-26T17:39:05.677Z,99491.13
2022-11-26T17:41:34.855Z,99498.00
2022-11-26T17:44:04.075Z,99501.00
2022-11-26T17:46:43.015Z,99499.16
2022-11-26T17:49:24.724Z,99510.06
2022-11-26T17:51:53.944Z,99510.41
2022-11-26T17:54:23.129Z,99506.13
2022-11-26T17:56:52.568Z,99517.84
2022-11-26T17:59:23.905Z,99519.00
2022-11-26T18:01:55.371Z,99524.91
2022-11-26T18:04:24.620Z,99521.22
2022-11-26T18:07:03.174Z,99526.28
2022-11-26T18:09:33.003Z,99517.72
2022-11-26T18:12:02.421Z,99522.81
2022-11-26T18:14:35.591Z,99535.78
2022-11-26T18:17:06.591Z,99528.13
2022-11-26T18:19:39.411Z,99521.66
2022-11-26T18:22:13.908Z,99522.81
2022-11-26T18:24:43.458Z,99521.19
2022-11-26T18:27:12.564Z,99522.09
2022-11-26T18:29:41.937Z,99521.19
2022-11-26T18:32:12.843Z,99523.03
2022-11-26T18:34:42.380Z,99520.97
2022-11-26T18:37:13.275Z,99519.81
2022-11-26T18:39:43.321Z,99505.75
2022-11-26T18:45:02.616Z,99502.03
2022-11-26T18:47:33.297Z,99501.78
2022-11-26T18:50:02.393Z,99498.44
2022-11-26T18:52:33.311Z,99511.69
2022-11-26T18:55:07.431Z,99511.22
2022-11-26T18:57:36.842Z,99519.69
2022-11-26T19:00:09.065Z,99510.06
2022-11-26T19:02:39.714Z,99520.75
2022-11-26T19:05:09.856Z,99524.44
2022-11-26T19:07:39.239Z,99519.13
2022-11-26T19:10:09.994Z,99524.88
2022-11-26T19:12:39.177Z,99517.88
2022-11-26T19:15:09.511Z,99519.28
2022-11-26T19:17:40.007Z,99522.06
2022-11-26T19:20:10.077Z,99519.72
2022-11-26T19:22:39.227Z,99522.75
2022-11-26T19:25:09.868Z,99534.56
2022-11-26T19:27:39.057Z,99541.22
2022-11-26T19:30:10.927Z,99541.13
2022-11-26T19:32:41.491Z,99544.25
2022-11-26T19:35:11.209Z,99542.03
2022-11-26T19:37:40.285Z,99545.94
2022-11-26T19:40:10.947Z,99554.19
2022-11-26T19:42:42.020Z,99563.34
2022-11-26T19:45:12.995Z,99562.38
2022-11-26T19:47:43.558Z,99566.47
2022-11-26T19:50:13.146Z,99564.03
2022-11-26T19:52:47.690Z,99567.94
2022-11-26T19:55:20.398Z,99575.09
2022-11-26T19:57:49.500Z,99569.34
2022-11-26T20:00:19.261Z,99577.75
2022-11-26T20:02:49.915Z,99582.72
2022-11-26T20:05:19.187Z,99572.47
2022-11-26T20:07:48.590Z,99581.59
2022-11-26T20:10:18.154Z,99578.03
2022-11-26T20:12:47.390Z,99577.75
2022-11-26T20:15:16.629Z,99571.22
2022-11-26T20:17:45.726Z,99580.16
2022-11-26T20:20:16.708Z,99583.78
2022-11-26T20:22:45.822Z,99576.63
2022-11-26T20:25:15.716Z,99576.84
2022-11-26T20:27:44.869Z,99576.06
2022-11-26T20:30:15.019Z,99573.59
2022-11-26T20:32:44.113Z,99571.72
2022-11-26T20:35:13.199Z,99575.44
2022-11-26T20:37:43.928Z,99566.09
2022-11-26T20:40:13.406Z,99572.69
2022-11-26T20:42:45.579Z,99572.06
2022-11-26T20:45:15.063Z,99575.00
2022-11-26T20:47:44.252Z,99582.16
2022-11-26T20:50:14.069Z,99584.19
2022-11-26T20:52:44.581Z,99581.22
2022-11-26T20:55:17.216Z,99577.38
2022-11-26T20:57:46.328Z,99580.41
2022-11-26T21:00:18.232Z,99573.31
2022-11-26T21:02:48.740Z,99578.75
2022-11-26T21:05:18.506Z,99572.56
2022-11-26T21:07:50.986Z,99578.44
2022-11-26T21:10:25.124Z,99573.47
2022-11-26T21:12:54.245Z,99574.59
2022-11-26T21:15:24.011Z,99582.13
2022-11-26T21:17:53.359Z,99579.41
2022-11-26T21:20:22.411Z,99575.00
2022-11-26T21:22:52.931Z,99579.56
2022-11-26T21:25:24.979Z,99581.81
2022-11-26T21:27:55.841Z,99577.53
2022-11-26T21:30:25.121Z,99584.44
2022-11-26T21:32:54.311Z,99586.75
2022-11-26T21:35:23.479Z,99584.78
2022-11-26T21:37:54.179Z,99584.94
2022-11-26T21:40:26.759Z,99582.34
2022-11-26T21:42:55.830Z,99582.88
2022-11-26T21:45:25.260Z,99579.78
2022-11-26T21:47:54.417Z,99577.50
2022-11-26T21:50:25.211Z,99573.91
2022-11-26T21:52:55.711Z,99575.53
2022-11-26T21:55:24.803Z,99587.78
2022-11-26T21:57:53.948Z,99585.34
2022-11-26T22:00:23.454Z,99585.84
2022-11-26T22:02:52.665Z,99581.13
2022-11-26T22:05:21.737Z,99580.78
2022-11-26T22:07:50.920Z,99578.31
2022-11-26T22:10:21.825Z,99575.09
2022-11-26T22:12:50.942Z,99571.00
2022-11-26T22:15:20.116Z,99574.91
2022-11-26T22:17:49.183Z,99586.16
2022-11-26T22:20:18.524Z,99581.28
2022-11-26T22:22:47.603Z,99578.03
2022-11-26T22:25:16.866Z,99581.75
2022-11-26T22:27:47.314Z,99576.72
2022-11-26T22:30:17.157Z,99566.91
2022-11-26T22:32:46.329Z,99566.28
2022-11-26T22:35:15.631Z,99558.47
2022-11-26T22:37:44.664Z,99556.97
2022-11-26T22:40:14.292Z,99555.00
2022-11-26T22:42:43.403Z,99549.66
2022-11-26T22:45:14.266Z,99545.41
2022-11-26T22:47:43.373Z,99537.25
2022-11-26T22:50:12.940Z,99541.66
2022-11-26T22:52:43.312Z,99528.44
2022-11-26T22:55:12.448Z,99532.53
2022-11-26T22:57:42.109Z,99531.06
2022-11-26T23:00:36.776Z,99539.06
2022-11-26T23:03:06.141Z,99538.22
2022-11-26T23:05:37.964Z,99538.53
2022-11-26T23:08:07.011Z,99534.47
2022-11-26T23:10:36.359Z,99547.28
2022-11-26T23:13:06.893Z,99548.47
2022-11-26T23:15:44.739Z,99552.53
2022-11-26T23:18:16.391Z,99553.41
2022-11-26T23:20:45.503Z,99559.25
2022-11-26T23:23:14.994Z,99564.28
2022-11-26T23:25:44.067Z,99562.59
2022-11-26T23:28:13.130Z,99567.13
2022-11-26T23:30:43.609Z,99564.09
2022-11-26T23:33:12.699Z,99559.19
2022-11-26T23:35:44.423Z,99559.13
2022-11-26T23:38:13.512Z,99563.72
2022-11-26T23:40:42.644Z,99559.47
2022-11-26T23:43:11.710Z,99563.38
2022-11-26T23:45:40.764Z,99561.56
2022-11-26T23:48:11.190Z,99563.44
2022-11-26T23:50:41.006Z,99562.81
2022-11-26T23:53:10.444Z,99567.47
2022-11-26T23:55:39.904Z,99564.44
2022-11-26T23:58:09.003Z,99565.84
